Home > Products > Valid Products > TAF

000
FTUS45 KFGZ 180100 AAB
TAFPGA
TAF AMD
KPGA 180151Z 1802/1824 05006KT P6SM FEW040 SCT090
     FM180600 VRB04KT 6SM BR SCT015 BKN025
     FM181500 25005KT P6SM SCT025 BKN045=



000
FTUS45 KFGZ 180100 AAA
TAFINW
TAF AMD
KINW 180146Z 1802/1824 22007KT P6SM VCSH SCT035 BKN060
     FM180300 VRB04KT P6SM VCFG SCT015 BKN025
      TEMPO 1803/1807 3SM BR OVC015
     FM180700 00000KT 3SM BR BKN018 PROB30 1813/1816 2SM -SHRA
      OVC018
     FM181700 VRB05KT P6SM SCT025 SCT040=



000
FTUS45 KFGZ 180100 AAB
TAFFLG
TAF AMD
KFLG 180141Z 1802/1824 23005KT P6SM SCT004 OVC012
      TEMPO 1802/1803 6SM -SN BR BKN004
     FM180300 VRB03KT 3SM BR OVC010
     FM181000 VRB04KT 3SM -SHSN BR OVC009
     FM181400 VRB05KT P6SM VCFG SCT009 BKN025
     FM181800 23008KT P6SM SCT025 BKN035=



000
FTUS45 KFGZ 180100 CCA
TAFFLG
TAF COR
KFLG 180105Z 1801/1824 23005KT P6SM FEW015 SCT020 BKN050
      TEMPO 1801/1803 6SM -SN BR BKN002 OVC013
     FM180300 VRB03KT 3SM BR OVC010
     FM181000 VRB04KT 3SM -SHSN BR OVC009
     FM181400 VRB05KT P6SM VCFG SCT009 BKN025
     FM181800 23008KT P6SM SCT025 BKN035=



000
FTUS45 KFGZ 180100 AAA
TAFFLG
TAF AMD
KFLG 180102Z 1801/1824 23005KT P6SM FEW015 SCT020 BKN050
      TEMPO 1802/1803 6SM -SN BR BKN002 OVC013
     FM180300 VRB03KT 3SM BR OVC010
     FM181000 VRB04KT 3SM -SHSN BR OVC009
     FM181400 VRB05KT P6SM VCFG SCT009 BKN025
     FM181800 23008KT P6SM SCT025 BKN035=



000
FTUS45 KFGZ 172300 AAA
TAFPGA
TAF AMD
KPGA 172343Z 1800/1824 05006KT P6SM SCT009 BKN018 OVC025
      TEMPO 1800/1801 BKN009
     FM180300 VRB04KT 6SM BR SCT015 BKN025
     FM181500 25005KT P6SM SCT025 BKN045=



000
FTUS45 KFGZ 172300
TAFPGA
TAF
KPGA 172340Z 1800/1824 19006KT P6SM BKN015 OVC030
      TEMPO 1800/1801 5SM -SHRA BR SCT015 BKN020 OVC035
     FM180300 VRB04KT 6SM BR SCT015 BKN025
     FM181500 25005KT P6SM SCT025 BKN045=



000
FTUS45 KFGZ 172300
TAFFLG
TAF
KFLG 172340Z 1800/1824 23007KT P6SM FEW015 SCT020 BKN050
      TEMPO 1800/1803 6SM -SN BR BKN017 OVC020
     FM180300 VRB03KT 3SM BR OVC010
     FM181000 VRB04KT 3SM -SHSN BR OVC009
     FM181400 VRB05KT P6SM VCFG SCT009 BKN025
     FM181800 23008KT P6SM SCT025 BKN035=



000
FTUS45 KFGZ 172300
TAFINW
TAF
KINW 172340Z 1800/1824 24010KT P6SM VCSH SCT035 BKN060
      TEMPO 1800/1803 -SHRA BKN025
     FM180300 VRB04KT P6SM VCFG SCT015 BKN025
      TEMPO 1803/1807 3SM BR OVC015
     FM180700 00000KT 3SM BR BKN018 PROB30 1813/1816 2SM -SHRA
      OVC018
     FM181700 VRB05KT P6SM SCT025 SCT040=



000
FTUS45 KFGZ 172200 AAB
TAFFLG
TAF AMD
KFLG 172212Z 1722/1818 23007KT 4SM -SN BR BKN017 OVC021
      TEMPO 1722/1724 2SM -SN BR OVC005
     FM180100 VRB03KT 3SM BR OVC010
     FM181100 VRB04KT 1SM -SHSN BR OVC009
     FM181600 23005KT P6SM VCFG SCT009 BKN025=



000
FTUS45 KFGZ 172100 AAA
TAFFLG
TAF AMD
KFLG 172121Z 1721/1818 23007KT 2SM -SN BR BKN007 OVC015
      TEMPO 1722/1802 1SM -SN BR OVC005
     FM180200 VRB03KT 3SM BR OVC010
     FM181300 25007KT 1SM -SHSN BR OVC007=



000
FTUS45 KFGZ 172100 AAA
TAFINW
TAF AMD
KINW 172105Z 1721/1818 VRB04KT P6SM VCSH SCT028 OVC035
      TEMPO 1721/1801 5SM -SHRA BR OVC025
     FM180200 VRB04KT P6SM VCFG SCT015 BKN025
      TEMPO 1802/1804 3SM -SHRA BR OVC015
     FM180700 00000KT 4SM BR BKN018 PROB30 1813/1818 2SM -SHRA
      OVC018=



000
FTUS45 KFGZ 172100 AAB
TAFPGA
TAF AMD
KPGA 172103Z 1721/1818 19006KT P6SM VCSH BKN015 OVC030
      TEMPO 1721/1801 5SM -SHRA BR SCT015 BKN020 OVC035
     FM180300 VRB04KT 6SM BR SCT015 BKN025
     FM181500 25005KT P6SM SCT025 BKN035=



000
FTUS45 KFGZ 171900 AAA
TAFPGA
TAF AMD
KPGA 171912Z 1719/1818 19006KT P6SM VCSH SCT015 OVC040
      TEMPO 1719/1723 BKN015
     FM172300 VRB05KT 5SM -SHRA BR SCT015 BKN020 OVC035
      TEMPO 1800/1804 2SM -SHRA BR BKN015 OVC025
     FM180600 VRB04KT 6SM BR SCT015 BKN025
     FM181500 25005KT P6SM SCT025 BKN035=



000
FTUS45 KFGZ 171700 RRA
TAFPGA
TAF
KPGA 171744Z 1718/1818 19006KT P6SM SCT025 OVC040
     FM172300 VRB05KT 5SM -SHRA BR SCT015 BKN025 OVC035
      TEMPO 1800/1804 2SM -SHRA BR BKN015 OVC025
     FM180600 VRB04KT 6SM BR SCT015 BKN025
     FM181500 25005KT P6SM SCT025 BKN035=



000
FTUS45 KFGZ 171700 RRA
TAFFLG
TAF
KFLG 171744Z 1718/1818 23005KT 3SM BR VCSH SCT008 OVC015
     FM172200 23007KT 2SM -SN BR BKN007 OVC015
      TEMPO 1723/1803 1SM -SN BR OVC005
     FM180600 VRB03KT 2SM BR VCSH OVC010
     FM181300 25007KT 1SM -SHSN BR OVC007=



000
FTUS45 KFGZ 171700 RRA
TAFINW
TAF
KINW 171744Z 1718/1818 VRB04KT P6SM VCSH SCT028 OVC035
      TEMPO 1721/1723 5SM -SHRA BR OVC025
     FM172300 24006KT 5SM -SHRA SCT015 BKN020 OVC030
      TEMPO 1800/1804 3SM -SHRA BR OVC015
     FM180700 00000KT 4SM BR BKN018 PROB30 1813/1818 2SM -SHRA
      OVC018=



000
FTUS45 KFGZ 171600 AAA
TAFINW
TAF AMD
KINW 171627Z 1716/1812 VRB04KT 6SM -SHRA BR SCT028 OVC035
      TEMPO 1721/1723 5SM -SHRA BR OVC025
     FM172300 24006KT 5SM -SHRA SCT015 BKN025 BKN035
      TEMPO 1800/1804 3SM -SHRA BR OVC015
     FM180400 00000KT 4SM BR BKN018=



000
FTUS45 KFGZ 171600 AAB
TAFFLG
TAF AMD
KFLG 171621Z 1716/1812 23005KT 3SM BR VCSH SCT008 OVC015
     FM172200 23007KT 3SM -SHSN BR BKN007 OVC015
      TEMPO 1723/1803 1SM -SN BR OVC005
     FM180500 VRB03KT 2SM BR BKN005=



000
FTUS45 KFGZ 171500 AAA
TAFFLG
TAF AMD
KFLG 171521Z 1715/1812 23005KT 6SM -SHSN BR SCT015 OVC025
     FM171700 22009KT P6SM VCSH SCT010 BKN018
      TEMPO 1720/1724 3SM -SN BR BKN012
     FM180000 22006KT 6SM -SHSN BR BKN015 OVC025
     FM180800 VRB03KT 4SM BR BKN005=



000
FTUS45 KFGZ 171400 AAA
TAFPGA
TAF AMD
KPGA 171436Z 1715/1812 VRB05KT P6SM BKN025 BKN040 OVC080
      TEMPO 1716/1720 6SM -SHRA BR BKN020
     FM172000 VRB05KT P6SM -SHRA SCT025 BKN050
     FM180000 VRB04KT P6SM SCT040 BKN060
     FM180200 VRB04KT P6SM BKN070=



000
FTUS45 KFGZ 171100
TAFPGA
TAF
KPGA 171133Z 1712/1812 30005KT P6SM SCT050 BKN070 OVC090
      TEMPO 1716/1720 6SM -SHRA BR BKN050
     FM172000 VRB05KT P6SM -SHRA SCT040 BKN050
     FM180000 VRB04KT P6SM SCT040 BKN060
     FM180200 VRB04KT P6SM BKN070=



000
FTUS45 KFGZ 171100
TAFFLG
TAF
KFLG 171133Z 1712/1812 23005KT 5SM -SHSN SCT015 BKN030
      TEMPO 1712/1716 1SM -SN BR BKN010
     FM171600 22009KT 4SM -SHSN SCT015 BKN025
      TEMPO 1720/1724 1SM -SN BR BKN012
     FM180000 22006KT P6SM VCSH SCT015 BKN035
     FM180300 VRB05KT P6SM BKN025=



000
FTUS45 KFGZ 171100
TAFINW
TAF
KINW 171133Z 1712/1812 25005KT P6SM BKN040 OVC050
      TEMPO 1712/1716 5SM RA BR OVC025
     FM171600 22006KT 5SM -SHRA BR BKN028 OVC040
      TEMPO 1718/1722 4SM SHRA BKN020
     FM180000 24006KT P6SM SCT025 BKN050=



000
FTUS45 KFGZ 170900 AAA
TAFFLG
TAF AMD
KFLG 170926Z 1709/1806 21005KT P6SM VCSH SCT025 BKN040
      TEMPO 1709/1713 2SM -SHSN BR OVC025
     FM171400 22009KT 1 1/2SM -SN BR OVC009
      TEMPO 1720/1724 1/2SM SN OVC005
     FM180300 VRB05KT 5SM -SHSN BKN012=



000
FTUS45 KFGZ 170500 RRA
TAFFLG
TAF
KFLG 170543Z 1706/1806 21010KT P6SM SCT050 OVC080
     FM170900 21005KT P6SM VCSH SCT025 BKN040
      TEMPO 1710/1714 2SM -SHSN BR OVC025
     FM171400 22009KT 1 1/2SM -SN BR OVC009
      TEMPO 1720/1724 1/2SM SN OVC005
     FM180300 VRB05KT 5SM -SHSN BKN012=



000
FTUS45 KFGZ 170500 RRA
TAFINW
TAF
KINW 170543Z 1706/1806 VRB06KT P6SM SCT100 BKN140
     FM171000 17004KT P6SM SCT060 OVC090
     FM171300 22007KT P6SM SCT030 BKN060
      TEMPO 1714/1718 5SM -SHRA BR OVC030
     FM171800 21006KT 5SM -RA BR BKN028 OVC040
     FM180200 21005KT P6SM VCSH BKN035=



000
FTUS45 KFGZ 170500 RRA
TAFPGA
TAF
KPGA 170543Z 1706/1806 VRB05KT P6SM BKN080 BKN140
     FM171000 VRB02KT P6SM SCT060 BKN080
      TEMPO 1713/1717 6SM -SHRA BR BKN060
     FM171700 VRB05KT 6SM -SHRA SCT040 BKN050
     FM180200 VRB04KT P6SM VCSH BKN060=



000
FTUS45 KFGZ 162300 RRA
TAFFLG
TAF
KFLG 162341Z 1700/1724 21010KT P6SM SCT070 BKN100 OVC140
     FM170700 21007KT P6SM VCSH SCT025 BKN040
      TEMPO 1708/1711 3SM -SHSN BR OVC025
     FM171100 VRB02KT 1 1/2SM -SN BR OVC009=



000
FTUS45 KFGZ 162300 RRA
TAFINW
TAF
KINW 162341Z 1700/1724 VRB06KT P6SM SCT100 BKN140
     FM170900 17004KT P6SM SCT060 OVC090
     FM171300 22007KT P6SM SCT030 BKN060 PROB30 1713/1718 4SM -SHRA
      BR OVC030
     FM171800 21006KT 4SM -RA BR BKN028 OVC040=



000
FTUS45 KFGZ 162300 RRA
TAFPGA
TAF
KPGA 162341Z 1700/1724 VRB05KT P6SM BKN080 BKN140
     FM171000 VRB02KT P6SM SCT060 BKN080 PROB30 1711/1717 6SM -SHRA
      BR BKN060
     FM171700 VRB05KT 6SM -SHRA SCT040 BKN050=



000
FTUS45 KFGZ 162100 AAB
TAFFLG
TAF AMD
KFLG 162109Z 1621/1718 21012G22KT P6SM SCT070 BKN100
     FM170200 VRB02KT P6SM SCT025 BKN050
      TEMPO 1704/1708 4SM -SHSN OVC025
     FM170800 VRB02KT 3SM -SHSN OVC010=



000
FTUS45 KFGZ 162100 AAB
TAFFLG
TAF AMD
KFLG 162109Z 1621/1718 21012G22KT P6SM SCT070 BKN100
     FM170200 VRB02KT P6SM SCT025 BKN050
      TEMPO 1704/1708 4SM -SHSN OVC025
     FM170800 VRB02KT 3SM -SHSN OVC010=



000
FTUS45 KFGZ 161900 AAA
TAFPGA
TAF AMD
KPGA 161905Z 1619/1718 VRB05KT P6SM BKN080 BKN140
     FM171000 VRB02KT P6SM SCT060 BKN080=



000
FTUS45 KFGZ 161900 AAA
TAFFLG
TAF AMD
KFLG 161904Z 1619/1718 21010KT P6SM BKN070 BKN110
     FM170200 VRB02KT P6SM SCT020 OVC050
      TEMPO 1703/1707 4SM -SHSN OVC020
     FM170700 VRB02KT 3SM -SHSN OVC010=



000
FTUS45 KFGZ 161700
TAFPGA
TAF
KPGA 161738Z 1618/1718 02005KT P6SM FEW080 SCT120 OVC200
     FM170100 VRB05KT P6SM SCT100 BKN120
     FM171000 VRB02KT P6SM SCT060 BKN080=



000
FTUS45 KFGZ 161700
TAFFLG
TAF
KFLG 161738Z 1618/1718 VRB03KT P6SM FEW025 SCT110 OVC150
     FM161900 22010KT P6SM FEW025 SCT100 SCT150
     FM170200 VRB02KT P6SM SCT020 OVC050
      TEMPO 1703/1707 4SM -SHSN OVC020
     FM170700 VRB02KT 3SM -SHSN OVC010=



000
FTUS45 KFGZ 161700
TAFINW
TAF
KINW 161738Z 1618/1718 VRB06KT P6SM SCT120 OVC150
     FM162000 21010KT P6SM FEW100 BKN140
     FM170900 17004KT P6SM SCT060 OVC090
     FM171200 22007KT P6SM SCT030 BKN060 PROB30 1712/1718 4SM -SHRA
      BR OVC030=



000
FTUS45 KFGZ 161600 AAA
TAFFLG
TAF AMD
KFLG 161649Z 1617/1712 VRB03KT P6SM FEW025 SCT110 OVC150
     FM161830 22010KT P6SM FEW025 SCT110 SCT150
     FM170100 VRB03KT P6SM BKN070 OVC120
     FM170600 VRB02KT P6SM SCT020 OVC050
      TEMPO 1706/1710 4SM -SHSN OVC020
     FM171000 VRB02KT 3SM -SHSN OVC010=



000
FTUS45 KFGZ 161100
TAFFLG
TAF
KFLG 161133Z 1612/1712 VRB03KT P6SM FEW100 SCT150 OVC200
     FM161700 22010KT P6SM SCT070 SCT120 BKN150
     FM170100 VRB03KT P6SM BKN070 OVC120
     FM170600 VRB02KT P6SM SCT020 OVC050
      TEMPO 1706/1710 1SM -SHSN OVC020
     FM171000 VRB02KT 5SM -SHSN OVC010=



000
FTUS45 KFGZ 161100
TAFPGA
TAF
KPGA 161133Z 1612/1712 VRB05KT P6SM FEW120 SCT150 OVC250
     FM161800 02005KT P6SM FEW080 SCT120 OVC200
     FM170100 VRB05KT P6SM SCT100 BKN120
     FM170600 VRB02KT P6SM SCT080 OVC120
     FM171000 VRB02KT P6SM SCT060 BKN080=



000
FTUS45 KFGZ 161100
TAFINW
TAF
KINW 161133Z 1612/1712 VRB06KT P6SM FEW140 OVC200
     FM162000 21010KT P6SM FEW100 BKN140 BKN170
     FM170200 VRB05KT P6SM SCT100 OVC140
     FM170900 17004KT P6SM SCT060 OVC090=



000
FTUS45 KFGZ 160500
TAFPGA
TAF
KPGA 160527Z 1606/1706 VRB05KT P6SM FEW120 SCT150 OVC250
     FM161800 02005KT P6SM FEW080 BKN120 OVC200
     FM170100 VRB05KT P6SM SCT080 OVC120=



000
FTUS45 KFGZ 160500
TAFINW
TAF
KINW 160527Z 1606/1706 VRB06KT P6SM FEW140 OVC200
     FM162000 21010KT P6SM SCT100 BKN140 BKN170
     FM170200 VRB05KT P6SM BKN100 OVC140=



000
FTUS45 KFGZ 160500
TAFFLG
TAF
KFLG 160527Z 1606/1706 VRB03KT P6SM FEW100 SCT150 OVC200
     FM161700 22010KT P6SM SCT070 SCT120 BKN150
     FM170100 VRB03KT P6SM BKN070 OVC120=



000
FTUS45 KFGZ 152300
TAFINW
TAF
KINW 152320Z 1600/1624 VRB06KT P6SM FEW140 OVC200
     FM162000 21010KT P6SM SCT100 BKN140 BKN170=



000
FTUS45 KFGZ 152300
TAFFLG
TAF
KFLG 152320Z 1600/1624 07008KT P6SM FEW120 OVC200
     FM160200 VRB03KT P6SM FEW100 SCT150 OVC200
     FM161700 22010KT P6SM SCT070 BKN120 BKN150=



000
FTUS45 KFGZ 152300
TAFPGA
TAF
KPGA 152320Z 1600/1624 VRB05KT P6SM FEW150 OVC250
     FM161800 22010KT P6SM SCT100 BKN140 BKN180=



000
FTUS45 KFGZ 151700
TAFINW
TAF
KINW 151720Z 1518/1618 VRB06KT P6SM FEW140 OVC200=



000
FTUS45 KFGZ 151700
TAFPGA
TAF
KPGA 151720Z 1518/1618 VRB05KT P6SM FEW150 OVC250=



000
FTUS45 KFGZ 151700
TAFFLG
TAF
KFLG 151720Z 1518/1618 07008KT P6SM FEW120 OVC200
     FM160200 VRB03KT P6SM SCT100 BKN150 OVC200=



000
FTUS45 KFGZ 151100
TAFFLG
TAF
KFLG 151120Z 1512/1612 VRB03KT P6SM SCT250
     FM151730 13008KT P6SM SCT100 BKN200
     FM160200 VRB03KT P6SM BKN100 BKN200=



000
FTUS45 KFGZ 151100
TAFINW
TAF
KINW 151120Z 1512/1612 VRB04KT P6SM SCT250
     FM151730 VRB05KT P6SM SCT120 BKN250=



000
FTUS45 KFGZ 151100
TAFPGA
TAF
KPGA 151120Z 1512/1612 VRB05KT P6SM SCT250
     FM151730 VRB05KT P6SM SCT150 BKN250=



000
FTUS45 KFGZ 150500
TAFINW
TAF
KINW 150528Z 1506/1606 VRB05KT P6SM SCT250
     FM150800 00000KT P6SM VCFG SCT250
     FM151730 VRB05KT P6SM FEW120 BKN250=



000
FTUS45 KFGZ 150500
TAFFLG
TAF
KFLG 150528Z 1506/1606 VRB03KT P6SM SCT250
     FM151730 19008KT P6SM SCT090 BKN200
     FM160200 VRB03KT P6SM SCT090 BKN200=



000
FTUS45 KFGZ 150500
TAFPGA
TAF
KPGA 150528Z 1506/1606 VRB05KT P6SM SCT250
     FM151730 VRB05KT P6SM SCT150 BKN250=



    US Dept of Commerce
    National Oceanic and Atmospheric Administration
    National Weather Service
    1325 East West Highway
    Silver Spring, MD 20910
    Page Author: NWS Internet Services Team
Disclaimer
Information Quality
Credits
Glossary
Privacy Policy
Freedom of Information Act (FOIA)
About Us
Career Opportunities